createdAt,value
2019-01-30T00:01:56.820Z,22.50
2019-01-30T00:04:27.553Z,30.62
2019-01-30T00:06:58.692Z,24.07
2019-01-30T00:09:29.032Z,24.52
2019-01-30T00:11:59.655Z,22.60
2019-01-30T00:14:30.358Z,25.00
2019-01-30T00:17:01.260Z,19.77
2019-01-30T00:19:31.661Z,24.43
2019-01-30T00:22:02.176Z,17.35
2019-01-30T00:24:32.791Z,16.95
2019-01-30T00:27:03.834Z,21.42
2019-01-30T00:29:34.625Z,19.00
2019-01-30T00:32:04.989Z,19.40
2019-01-30T00:34:35.343Z,17.60
2019-01-30T00:37:05.820Z,17.42
2019-01-30T00:39:36.166Z,23.87
2019-01-30T00:42:06.572Z,21.77
2019-01-30T00:44:37.055Z,25.27
2019-01-30T00:47:15.739Z,24.20
2019-01-30T00:49:39.822Z,19.12
2019-01-30T00:52:10.944Z,21.05
2019-01-30T00:54:41.986Z,20.57
2019-01-30T00:57:12.330Z,21.05
2019-01-30T00:59:42.993Z,14.40
2019-01-30T01:02:13.647Z,18.50
2019-01-30T01:04:44.371Z,17.77
2019-01-30T01:07:15.121Z,21.37
2019-01-30T01:09:46.068Z,26.25
2019-01-30T01:12:16.417Z,14.50
2019-01-30T01:14:47.283Z,18.37
2019-01-30T01:17:17.993Z,21.25
2019-01-30T01:19:48.697Z,17.37
2019-01-30T01:22:19.085Z,15.78
2019-01-30T01:24:49.954Z,17.60
2019-01-30T01:27:20.545Z,21.80
2019-01-30T01:29:50.943Z,25.15
2019-01-30T01:32:21.289Z,23.57
2019-01-30T01:34:51.987Z,24.12
2019-01-30T01:37:22.727Z,21.55
2019-01-30T01:39:53.135Z,21.23
2019-01-30T01:42:23.471Z,26.70
2019-01-30T01:44:53.856Z,21.42
2019-01-30T01:47:24.555Z,30.45
2019-01-30T01:49:54.912Z,32.30
2019-01-30T01:52:25.742Z,19.55
2019-01-30T01:54:56.119Z,21.17
2019-01-30T01:57:26.820Z,31.97
2019-01-30T01:59:57.516Z,22.90
2019-01-30T02:02:28.150Z,21.45
2019-01-30T02:04:58.883Z,20.72
2019-01-30T02:07:29.338Z,19.92
2019-01-30T02:10:00.043Z,21.07
2019-01-30T02:12:30.381Z,22.87
2019-01-30T02:15:01.106Z,27.15
2019-01-30T02:17:31.476Z,18.60
2019-01-30T02:20:02.580Z,24.18
2019-01-30T02:22:33.252Z,16.57
2019-01-30T02:25:03.947Z,24.82
2019-01-30T02:27:34.293Z,19.23
2019-01-30T02:30:18.197Z,29.20
2019-01-30T02:32:48.893Z,25.50
2019-01-30T02:35:19.583Z,19.35
2019-01-30T02:37:50.454Z,17.12
2019-01-30T02:40:24.356Z,21.77
2019-01-30T02:42:54.715Z,18.12
2019-01-30T02:45:26.883Z,26.70
2019-01-30T02:47:57.615Z,21.77
2019-01-30T02:50:27.942Z,17.07
2019-01-30T02:52:58.958Z,23.10
2019-01-30T02:55:29.294Z,21.85
2019-01-30T02:58:00.026Z,19.55
2019-01-30T03:00:34.949Z,18.32
2019-01-30T03:03:05.278Z,16.27
2019-01-30T03:05:36.135Z,23.35
2019-01-30T03:08:06.559Z,21.27
2019-01-30T03:10:36.915Z,19.98
2019-01-30T03:13:07.583Z,23.02
2019-01-30T03:15:37.975Z,20.12
2019-01-30T03:18:08.335Z,22.58
2019-01-30T03:20:39.616Z,17.30
2019-01-30T03:23:10.950Z,20.02
2019-01-30T03:25:41.706Z,17.52
2019-01-30T03:28:12.739Z,21.82
2019-01-30T03:30:43.121Z,16.90
2019-01-30T03:33:13.483Z,17.70
2019-01-30T03:35:44.159Z,20.40
2019-01-30T03:38:15.022Z,20.00
2019-01-30T03:40:46.237Z,25.95
2019-01-30T03:43:16.939Z,24.27
2019-01-30T03:45:47.856Z,24.23
2019-01-30T03:48:18.458Z,21.80
2019-01-30T03:50:48.794Z,19.87
2019-01-30T03:53:19.311Z,22.17
2019-01-30T03:55:49.629Z,19.95
2019-01-30T03:58:20.348Z,20.85
2019-01-30T04:00:51.120Z,19.77
2019-01-30T04:03:21.454Z,16.65
2019-01-30T04:05:52.354Z,28.15
2019-01-30T04:08:23.038Z,18.35
2019-01-30T04:10:54.613Z,21.90
2019-01-30T04:13:24.977Z,20.60
2019-01-30T04:15:55.611Z,25.48
2019-01-30T04:18:25.946Z,26.80
2019-01-30T04:20:57.104Z,17.85
2019-01-30T04:23:27.428Z,15.00
2019-01-30T04:25:58.112Z,17.15
2019-01-30T04:28:28.500Z,23.07
2019-01-30T04:30:58.838Z,22.95
2019-01-30T04:33:29.559Z,16.95
2019-01-30T04:36:00.296Z,24.10
2019-01-30T04:38:30.632Z,22.98
2019-01-30T04:41:01.000Z,25.27
2019-01-30T04:43:31.415Z,24.67
2019-01-30T04:46:01.752Z,20.88
2019-01-30T04:48:32.464Z,19.42
2019-01-30T04:51:02.846Z,22.52
2019-01-30T04:53:33.173Z,14.38
2019-01-30T04:56:03.800Z,23.60
2019-01-30T04:58:34.205Z,27.17
2019-01-30T05:01:04.814Z,15.72
2019-01-30T05:03:35.145Z,19.05
2019-01-30T05:06:05.930Z,22.45
2019-01-30T05:08:36.271Z,19.75
2019-01-30T05:11:06.974Z,18.80
2019-01-30T05:13:37.389Z,22.80
2019-01-30T05:16:08.046Z,24.57
2019-01-30T05:18:38.391Z,22.77
2019-01-30T05:21:08.756Z,26.48
2019-01-30T05:23:39.187Z,20.92
2019-01-30T05:26:09.793Z,32.88
2019-01-30T05:28:40.194Z,20.52
2019-01-30T05:31:10.532Z,22.93
2019-01-30T05:33:41.332Z,19.50
2019-01-30T05:36:11.974Z,28.80
2019-01-30T05:38:42.768Z,22.45
2019-01-30T05:41:13.107Z,26.30
2019-01-30T05:43:43.854Z,21.12
2019-01-30T05:46:14.194Z,22.90
2019-01-30T05:48:44.531Z,26.17
2019-01-30T05:51:14.919Z,24.87
2019-01-30T05:53:45.276Z,20.97
2019-01-30T05:56:15.717Z,30.57
2019-01-30T05:58:46.997Z,21.87
2019-01-30T06:01:17.418Z,26.12
2019-01-30T06:03:48.125Z,25.17
2019-01-30T06:06:18.507Z,22.73
2019-01-30T06:08:48.841Z,26.87
2019-01-30T06:11:19.654Z,20.70
2019-01-30T06:13:50.442Z,21.80
2019-01-30T06:16:20.777Z,19.55
2019-01-30T06:18:51.115Z,20.72
2019-01-30T06:21:21.856Z,17.12
2019-01-30T06:23:52.918Z,15.18
2019-01-30T06:26:23.315Z,22.70
2019-01-30T06:28:53.744Z,19.80
2019-01-30T06:31:24.392Z,25.57
2019-01-30T06:33:55.018Z,18.20
2019-01-30T06:36:25.389Z,23.12
2019-01-30T06:38:56.207Z,15.80
2019-01-30T06:41:26.878Z,18.82
2019-01-30T06:43:57.272Z,29.67
2019-01-30T06:46:28.078Z,21.25
2019-01-30T06:48:58.731Z,33.55
2019-01-30T06:51:29.138Z,24.27
2019-01-30T06:53:59.797Z,21.05
2019-01-30T06:56:30.143Z,21.85
2019-01-30T06:59:00.856Z,23.02
2019-01-30T07:01:31.891Z,24.20
2019-01-30T07:04:02.230Z,19.05
2019-01-30T07:06:32.577Z,34.58
2019-01-30T07:09:05.071Z,20.77
2019-01-30T07:11:35.684Z,24.37
2019-01-30T07:14:06.179Z,22.98
2019-01-30T07:16:36.818Z,21.60
2019-01-30T07:19:07.191Z,20.52
2019-01-30T07:21:37.574Z,31.48
2019-01-30T07:24:07.942Z,19.82
2019-01-30T07:26:38.658Z,20.12
2019-01-30T07:29:09.327Z,22.37
2019-01-30T07:31:39.680Z,24.32
2019-01-30T07:34:10.286Z,19.27
2019-01-30T07:36:41.081Z,23.47
2019-01-30T07:39:11.813Z,21.10
2019-01-30T07:41:42.169Z,23.52
2019-01-30T07:44:12.577Z,24.43
2019-01-30T07:46:43.316Z,21.17
2019-01-30T07:49:13.661Z,27.67
2019-01-30T07:51:44.070Z,26.57
2019-01-30T07:54:14.418Z,28.17
2019-01-30T07:56:45.148Z,19.25
2019-01-30T07:59:15.789Z,27.02
2019-01-30T08:01:46.503Z,29.52
2019-01-30T08:04:16.863Z,33.13
2019-01-30T08:06:47.392Z,26.48
2019-01-30T08:09:17.736Z,24.63
2019-01-30T08:11:48.092Z,30.90
2019-01-30T08:14:18.855Z,23.38
2019-01-30T08:16:49.189Z,30.43
2019-01-30T08:19:20.127Z,26.40
2019-01-30T08:21:50.536Z,28.12
2019-01-30T08:24:21.596Z,25.25
2019-01-30T08:26:52.004Z,28.75
2019-01-30T08:29:22.751Z,28.47
2019-01-30T08:31:53.739Z,33.35
2019-01-30T08:34:24.085Z,29.65
2019-01-30T08:36:54.787Z,26.25
2019-01-30T08:39:25.477Z,32.00
2019-01-30T08:41:55.807Z,29.55
2019-01-30T08:44:26.207Z,30.52
2019-01-30T08:46:56.551Z,27.40
2019-01-30T08:49:26.902Z,28.35
2019-01-30T08:51:57.931Z,22.82
2019-01-30T08:54:28.562Z,29.82
2019-01-30T08:56:58.883Z,33.40
2019-01-30T08:59:29.645Z,26.85
2019-01-30T09:01:59.969Z,34.27
2019-01-30T09:04:30.323Z,29.10
2019-01-30T09:07:01.441Z,34.30
2019-01-30T09:09:32.151Z,34.10
2019-01-30T09:12:02.501Z,29.63
2019-01-30T09:14:33.240Z,32.00
2019-01-30T09:17:08.240Z,37.33
2019-01-30T09:19:36.355Z,25.30
2019-01-30T09:22:07.134Z,35.13
2019-01-30T09:24:37.855Z,29.05
2019-01-30T09:27:08.856Z,33.13
2019-01-30T09:29:39.570Z,24.50
2019-01-30T09:32:10.166Z,29.35
2019-01-30T09:34:41.277Z,27.93
2019-01-30T09:37:11.853Z,26.55
2019-01-30T09:39:54.320Z,28.62
2019-01-30T09:42:45.721Z,33.13
2019-01-30T09:45:46.313Z,30.45
2019-01-30T09:48:29.140Z,26.20
2019-01-30T09:51:18.894Z,28.40
2019-01-30T09:54:03.871Z,24.32
2019-01-30T09:56:53.622Z,34.83
2019-01-30T09:59:35.921Z,27.60
2019-01-30T10:02:25.670Z,22.62
2019-01-30T10:05:10.865Z,21.23
2019-01-30T10:08:00.643Z,23.10
2019-01-30T10:10:43.278Z,21.93
2019-01-30T10:13:33.367Z,22.60
2019-01-30T10:16:16.437Z,22.35
2019-01-30T10:19:06.461Z,28.12
2019-01-30T10:21:51.302Z,23.73
2019-01-30T10:28:16.283Z,24.82
2019-01-30T10:31:00.071Z,23.05
2019-01-30T10:33:46.675Z,21.02
2019-01-30T10:36:36.582Z,20.00
2019-01-30T10:39:21.454Z,16.57
2019-01-30T10:42:11.491Z,18.85
2019-01-30T10:44:56.963Z,15.15
2019-01-30T10:47:47.236Z,20.77
2019-01-30T10:50:31.007Z,18.00
2019-01-30T10:53:20.765Z,11.18
2019-01-30T10:56:05.227Z,16.93
2019-01-30T10:58:55.297Z,12.60
2019-01-30T11:01:38.363Z,13.93
2019-01-30T11:04:28.119Z,21.48
2019-01-30T11:07:12.695Z,12.55
2019-01-30T11:10:03.097Z,16.95
2019-01-30T11:12:45.720Z,15.43
2019-01-30T11:18:37.311Z,15.30
2019-01-30T11:21:27.057Z,11.35
2019-01-30T11:24:09.776Z,13.90
2019-01-30T11:26:59.514Z,16.95
2019-01-30T11:29:41.929Z,13.90
2019-01-30T11:32:25.088Z,13.93
2019-01-30T11:35:14.853Z,14.13
2019-01-30T11:37:57.974Z,12.03
2019-01-30T11:40:48.045Z,15.58
2019-01-30T11:43:30.726Z,16.52
2019-01-30T11:46:20.882Z,13.53
2019-01-30T11:49:05.204Z,18.65
2019-01-30T11:51:55.249Z,17.95
2019-01-30T11:54:38.934Z,17.35
2019-01-30T11:57:28.968Z,18.20
2019-01-30T12:00:16.358Z,15.98
2019-01-30T12:03:06.475Z,17.45
2019-01-30T12:05:49.435Z,17.25
2019-01-30T12:08:39.217Z,14.28
2019-01-30T12:11:22.207Z,18.35
2019-01-30T12:14:11.983Z,21.90
2019-01-30T12:17:14.195Z,21.00
2019-01-30T12:23:20.611Z,12.85
2019-01-30T12:26:12.010Z,22.48
2019-01-30T12:29:01.816Z,15.38
2019-01-30T12:31:45.855Z,21.12
2019-01-30T12:37:43.310Z,20.37
2019-01-30T12:40:33.672Z,17.10
2019-01-30T12:43:18.318Z,16.57
2019-01-30T12:46:27.498Z,18.27
2019-01-30T12:49:10.129Z,24.60
2019-01-30T12:51:59.912Z,21.02
2019-01-30T12:54:30.252Z,20.08
2019-01-30T12:57:20.023Z,19.52
2019-01-30T13:00:05.944Z,22.70
2019-01-30T13:03:15.071Z,22.55
2019-01-30T13:05:58.056Z,21.65
2019-01-30T13:08:47.829Z,25.23
2019-01-30T13:11:28.501Z,22.35
2019-01-30T13:14:12.279Z,24.95
2019-01-30T13:17:02.322Z,27.75
2019-01-30T13:19:45.383Z,24.23
2019-01-30T13:22:35.158Z,31.62
2019-01-30T13:25:19.835Z,30.57
2019-01-30T13:28:10.029Z,27.13
2019-01-30T13:30:52.949Z,30.95
2019-01-30T13:33:35.704Z,28.40
2019-01-30T13:36:45.948Z,36.15
2019-01-30T13:39:26.846Z,33.00
2019-01-30T13:42:09.296Z,29.92
2019-01-30T13:44:59.340Z,31.73
2019-01-30T13:47:42.350Z,32.90
2019-01-30T13:50:32.110Z,25.62
2019-01-30T13:53:17.096Z,32.20
2019-01-30T13:56:07.179Z,30.27
2019-01-30T13:58:49.903Z,23.45
2019-01-30T14:01:40.274Z,30.70
2019-01-30T14:04:25.210Z,30.92
2019-01-30T14:10:41.561Z,26.82
2019-01-30T14:16:32.452Z,26.48
2019-01-30T14:19:16.536Z,24.23
2019-01-30T14:22:06.332Z,27.77
2019-01-30T14:24:49.448Z,26.17
2019-01-30T14:27:39.213Z,23.12
2019-01-30T14:30:41.890Z,25.70
2019-01-30T14:33:24.651Z,29.15
2019-01-30T14:36:14.425Z,28.35
2019-01-30T14:38:57.302Z,22.95
2019-01-30T14:41:47.021Z,28.10
2019-01-30T14:44:31.692Z,26.57
2019-01-30T14:47:21.467Z,29.05
2019-01-30T14:50:07.948Z,23.70
2019-01-30T14:52:57.757Z,19.32
2019-01-30T14:55:40.681Z,17.30
2019-01-30T14:58:30.698Z,24.65
2019-01-30T15:01:13.831Z,19.25
2019-01-30T15:04:03.603Z,24.98
2019-01-30T15:06:46.249Z,25.65
2019-01-30T15:09:35.978Z,19.42
2019-01-30T15:12:16.683Z,21.73
2019-01-30T15:15:27.486Z,16.93
2019-01-30T15:18:10.348Z,24.15
2019-01-30T15:21:00.132Z,17.48
2019-01-30T15:23:43.128Z,18.35
2019-01-30T15:30:00.333Z,17.37
2019-01-30T15:32:42.924Z,19.77
2019-01-30T15:38:41.026Z,15.88
2019-01-30T15:41:31.211Z,14.87
2019-01-30T15:44:13.943Z,15.43
2019-01-30T15:47:03.865Z,18.77
2019-01-30T15:49:46.515Z,22.58
2019-01-30T15:52:36.335Z,20.55
2019-01-30T15:55:19.787Z,19.00
2019-01-30T15:58:30.739Z,35.28
2019-01-30T16:01:13.752Z,26.35
2019-01-30T16:04:06.101Z,18.73
2019-01-30T16:07:07.028Z,23.73
2019-01-30T16:09:56.943Z,18.82
2019-01-30T16:13:00.597Z,17.62
2019-01-30T16:16:11.988Z,19.50
2019-01-30T16:18:55.163Z,21.95
2019-01-30T16:21:45.521Z,15.70
2019-01-30T16:24:28.124Z,17.42
2019-01-30T16:27:11.380Z,15.50
2019-01-30T16:30:01.751Z,15.10
2019-01-30T16:32:44.354Z,14.50
2019-01-30T16:35:34.465Z,11.57
2019-01-30T16:38:34.516Z,12.78
2019-01-30T16:41:24.899Z,19.73
2019-01-30T16:44:09.290Z,15.78
2019-01-30T16:46:59.335Z,17.07
2019-01-30T16:49:42.248Z,15.32
2019-01-30T16:52:32.020Z,16.95
2019-01-30T16:55:18.442Z,17.48
2019-01-30T16:58:08.210Z,21.42
2019-01-30T17:00:48.870Z,62.10
2019-01-30T17:03:38.927Z,16.17
2019-01-30T17:06:22.164Z,15.00
2019-01-30T17:09:12.526Z,17.12
2019-01-30T17:11:57.025Z,20.30
2019-01-30T17:14:47.315Z,13.62
2019-01-30T17:17:49.095Z,19.52
2019-01-30T17:21:00.215Z,13.90
2019-01-30T17:23:44.895Z,20.05
2019-01-30T17:26:27.381Z,16.02
2019-01-30T17:29:17.992Z,16.00
2019-01-30T17:32:00.766Z,19.40
2019-01-30T17:34:52.044Z,18.57
2019-01-30T17:37:54.653Z,20.20
2019-01-30T17:40:44.907Z,20.57
2019-01-30T17:43:27.778Z,21.30
2019-01-30T17:46:17.591Z,24.18
2019-01-30T17:49:00.396Z,17.92
2019-01-30T17:51:50.192Z,21.00
2019-01-30T17:54:34.277Z,20.05
2019-01-30T17:57:24.352Z,23.12
2019-01-30T18:03:30.542Z,19.87
2019-01-30T18:06:15.042Z,18.50
2019-01-30T18:09:25.898Z,24.60
2019-01-30T18:12:06.808Z,20.15
2019-01-30T18:14:49.184Z,19.90
2019-01-30T18:20:41.059Z,28.05
2019-01-30T18:23:31.078Z,27.58
2019-01-30T18:26:13.618Z,18.95
2019-01-30T18:29:03.402Z,24.52
2019-01-30T18:31:46.369Z,21.50
2019-01-30T18:34:36.412Z,24.30
2019-01-30T18:37:19.068Z,23.05
2019-01-30T18:40:12.102Z,28.95
2019-01-30T18:42:55.189Z,23.22
2019-01-30T18:45:45.502Z,25.92
2019-01-30T18:48:30.134Z,28.05
2019-01-30T18:54:21.669Z,24.43
2019-01-30T18:57:11.814Z,26.95
2019-01-30T18:59:55.759Z,30.85
2019-01-30T19:02:45.532Z,29.27
2019-01-30T19:05:30.313Z,30.90
2019-01-30T19:08:20.057Z,32.67
2019-01-30T19:11:02.412Z,42.67
2019-01-30T19:13:52.523Z,34.70
2019-01-30T19:16:35.572Z,34.80
2019-01-30T19:19:25.711Z,32.28
2019-01-30T19:22:10.299Z,35.17
2019-01-30T19:24:59.881Z,35.50
2019-01-30T19:27:44.604Z,33.45
2019-01-30T19:30:34.360Z,40.03
2019-01-30T19:33:18.390Z,37.10
2019-01-30T19:36:08.505Z,40.55
2019-01-30T19:38:50.887Z,38.00
2019-01-30T19:41:40.942Z,39.73
2019-01-30T19:44:23.440Z,37.83
2019-01-30T19:47:13.196Z,35.20
2019-01-30T19:49:57.249Z,35.45
2019-01-30T19:55:48.980Z,41.77
2019-01-30T19:58:38.734Z,48.00
2019-01-30T20:01:23.431Z,46.68
2019-01-30T20:04:13.180Z,49.42
2019-01-30T20:06:57.299Z,40.58
2019-01-30T20:13:14.028Z,52.53
2019-01-30T20:16:04.507Z,42.75
2019-01-30T20:18:54.547Z,52.70
2019-01-30T20:21:36.935Z,52.38
2019-01-30T20:27:35.171Z,44.45
2019-01-30T20:30:25.342Z,49.25
2019-01-30T20:33:07.997Z,51.00
2019-01-30T20:35:57.812Z,46.77
2019-01-30T20:38:41.102Z,44.70
2019-01-30T20:41:31.200Z,49.65
2019-01-30T20:44:14.261Z,43.55
2019-01-30T20:47:04.065Z,51.18
2019-01-30T20:49:50.596Z,46.42
2019-01-30T20:52:40.221Z,50.98
2019-01-30T20:55:25.119Z,49.45
2019-01-30T20:58:15.204Z,55.48
2019-01-30T21:00:59.767Z,52.80
2019-01-30T21:03:49.840Z,51.92
2019-01-30T21:06:32.563Z,50.45
2019-01-30T21:09:22.365Z,54.70
2019-01-30T21:12:05.262Z,51.85
2019-01-30T21:14:48.517Z,52.23
2019-01-30T21:17:38.300Z,50.20
2019-01-30T21:20:21.600Z,45.98
2019-01-30T21:23:11.922Z,49.73
2019-01-30T21:25:55.462Z,59.05
2019-01-30T21:28:45.583Z,50.52
2019-01-30T21:31:29.925Z,52.50
2019-01-30T21:34:19.709Z,48.08
2019-01-30T21:36:50.438Z,65.87
2019-01-30T21:46:08.663Z,50.78
2019-01-30T21:48:58.714Z,66.75
2019-01-30T21:51:42.718Z,51.83
2019-01-30T21:54:32.998Z,63.78
2019-01-30T21:57:15.552Z,55.98
2019-01-30T22:00:44.383Z,58.42
2019-01-30T22:03:27.472Z,56.55
2019-01-30T22:09:45.045Z,64.03
2019-01-30T22:12:27.619Z,65.22
2019-01-30T22:15:17.950Z,54.30
2019-01-30T22:18:01.338Z,62.58
2019-01-30T22:20:51.399Z,54.05
2019-01-30T22:23:34.482Z,54.38
2019-01-30T22:26:24.262Z,66.97
2019-01-30T22:29:08.619Z,54.55
2019-01-30T22:32:17.486Z,66.57
2019-01-30T22:35:00.461Z,48.28
2019-01-30T22:38:12.467Z,61.73
2019-01-30T22:41:13.347Z,64.30
2019-01-30T22:44:22.774Z,70.62
2019-01-30T22:47:05.659Z,65.28
2019-01-30T22:49:55.820Z,56.68
2019-01-30T22:52:38.885Z,61.50
2019-01-30T22:58:57.154Z,64.22
2019-01-30T23:02:08.595Z,64.53
2019-01-30T23:04:55.356Z,63.78
2019-01-30T23:08:06.176Z,68.95
2019-01-30T23:10:53.893Z,59.23
2019-01-30T23:14:05.028Z,65.95
2019-01-30T23:17:14.401Z,65.57
2019-01-30T23:20:26.819Z,62.33
2019-01-30T23:23:30.634Z,62.03
2019-01-30T23:26:42.509Z,64.92
2019-01-30T23:29:26.959Z,71.25
2019-01-30T23:32:38.357Z,66.53
2019-01-30T23:35:40.362Z,66.12
2019-01-30T23:38:51.854Z,67.37
2019-01-30T23:41:36.486Z,68.15
2019-01-30T23:44:47.680Z,65.30
2019-01-30T23:47:32.570Z,60.48
2019-01-30T23:50:44.002Z,62.25
2019-01-30T23:53:50.744Z,70.92
2019-01-30T23:57:19.613Z,64.60
